sensor_id;sensor_type;location;lat;lon;timestamp;temperature;humidity
25346;DHT22;13300;51.032;3.710;2023-08-24T00:01:39;20.90;99.90
25346;DHT22;13300;51.032;3.710;2023-08-24T00:04:04;20.90;99.90
25346;DHT22;13300;51.032;3.710;2023-08-24T00:06:30;21.00;99.90
25346;DHT22;13300;51.032;3.710;2023-08-24T00:08:55;21.00;99.90
25346;DHT22;13300;51.032;3.710;2023-08-24T00:11:21;20.90;99.90
25346;DHT22;13300;51.032;3.710;2023-08-24T00:13:47;20.90;99.90
25346;DHT22;13300;51.032;3.710;2023-08-24T00:16:16;21.00;99.90
25346;DHT22;13300;51.032;3.710;2023-08-24T00:18:42;20.90;99.90
25346;DHT22;13300;51.032;3.710;2023-08-24T00:21:08;20.90;99.90
25346;DHT22;13300;51.032;3.710;2023-08-24T00:23:33;20.90;99.90
25346;DHT22;13300;51.032;3.710;2023-08-24T00:25:59;21.00;99.90
25346;DHT22;13300;51.032;3.710;2023-08-24T00:28:27;21.00;99.90
25346;DHT22;13300;51.032;3.710;2023-08-24T00:30:53;21.00;99.90
25346;DHT22;13300;51.032;3.710;2023-08-24T00:33:19;21.00;99.90
25346;DHT22;13300;51.032;3.710;2023-08-24T00:35:44;20.90;99.90
25346;DHT22;13300;51.032;3.710;2023-08-24T00:38:10;20.90;99.90
25346;DHT22;13300;51.032;3.710;2023-08-24T00:40:36;20.90;99.90
25346;DHT22;13300;51.032;3.710;2023-08-24T00:43:01;21.00;99.90
25346;DHT22;13300;51.032;3.710;2023-08-24T00:45:27;21.10;99.90
25346;DHT22;13300;51.032;3.710;2023-08-24T00:47:52;21.20;99.90
25346;DHT22;13300;51.032;3.710;2023-08-24T00:50:18;21.30;99.90
25346;DHT22;13300;51.032;3.710;2023-08-24T00:52:43;21.20;99.90
25346;DHT22;13300;51.032;3.710;2023-08-24T00:55:10;21.30;99.90
25346;DHT22;13300;51.032;3.710;2023-08-24T00:57:35;21.30;99.90
25346;DHT22;13300;51.032;3.710;2023-08-24T01:00:03;21.30;99.90
25346;DHT22;13300;51.032;3.710;2023-08-24T01:02:31;21.30;99.90
25346;DHT22;13300;51.032;3.710;2023-08-24T01:04:56;21.30;99.90
25346;DHT22;13300;51.032;3.710;2023-08-24T01:07:22;21.40;99.90
25346;DHT22;13300;51.032;3.710;2023-08-24T01:09:47;21.40;99.90
25346;DHT22;13300;51.032;3.710;2023-08-24T01:12:23;21.40;99.90
25346;DHT22;13300;51.032;3.710;2023-08-24T01:17:35;21.40;99.90
25346;DHT22;13300;51.032;3.710;2023-08-24T01:20:01;21.30;99.90
25346;DHT22;13300;51.032;3.710;2023-08-24T01:22:32;21.20;99.90
25346;DHT22;13300;51.032;3.710;2023-08-24T01:25:05;21.20;99.90
25346;DHT22;13300;51.032;3.710;2023-08-24T01:27:34;21.20;99.90
25346;DHT22;13300;51.032;3.710;2023-08-24T01:30:01;21.20;99.90
25346;DHT22;13300;51.032;3.710;2023-08-24T01:32:35;21.00;99.90
25346;DHT22;13300;51.032;3.710;2023-08-24T01:35:05;20.80;99.90
25346;DHT22;13300;51.032;3.710;2023-08-24T01:37:31;20.50;99.90
25346;DHT22;13300;51.032;3.710;2023-08-24T01:40:10;20.30;99.90
25346;DHT22;13300;51.032;3.710;2023-08-24T01:45:12;19.90;99.90
25346;DHT22;13300;51.032;3.710;2023-08-24T01:47:39;19.70;99.90
25346;DHT22;13300;51.032;3.710;2023-08-24T01:50:06;19.80;99.90
25346;DHT22;13300;51.032;3.710;2023-08-24T01:52:32;19.80;99.90
25346;DHT22;13300;51.032;3.710;2023-08-24T01:54:59;19.70;99.90
25346;DHT22;13300;51.032;3.710;2023-08-24T01:57:24;19.60;99.90
25346;DHT22;13300;51.032;3.710;2023-08-24T01:59:50;19.70;99.90
25346;DHT22;13300;51.032;3.710;2023-08-24T02:02:16;19.80;99.90
25346;DHT22;13300;51.032;3.710;2023-08-24T02:04:41;19.80;99.90
25346;DHT22;13300;51.032;3.710;2023-08-24T02:07:07;19.70;99.90
25346;DHT22;13300;51.032;3.710;2023-08-24T02:09:32;19.70;99.90
25346;DHT22;13300;51.032;3.710;2023-08-24T02:11:58;19.60;99.90
25346;DHT22;13300;51.032;3.710;2023-08-24T02:14:23;19.50;99.90
25346;DHT22;13300;51.032;3.710;2023-08-24T02:16:49;19.50;99.90
25346;DHT22;13300;51.032;3.710;2023-08-24T02:19:15;19.50;99.90
25346;DHT22;13300;51.032;3.710;2023-08-24T02:21:41;19.50;99.90
25346;DHT22;13300;51.032;3.710;2023-08-24T02:24:06;19.50;99.90
25346;DHT22;13300;51.032;3.710;2023-08-24T02:26:32;19.40;99.90
25346;DHT22;13300;51.032;3.710;2023-08-24T02:28:57;19.40;99.90
25346;DHT22;13300;51.032;3.710;2023-08-24T02:31:23;19.30;99.90
25346;DHT22;13300;51.032;3.710;2023-08-24T02:33:49;19.30;99.90
25346;DHT22;13300;51.032;3.710;2023-08-24T02:36:14;19.10;99.90
25346;DHT22;13300;51.032;3.710;2023-08-24T02:38:40;19.10;99.90
25346;DHT22;13300;51.032;3.710;2023-08-24T02:41:06;19.00;99.90
25346;DHT22;13300;51.032;3.710;2023-08-24T02:43:32;19.00;99.90
25346;DHT22;13300;51.032;3.710;2023-08-24T02:46:01;19.00;99.90
25346;DHT22;13300;51.032;3.710;2023-08-24T02:48:28;18.90;99.90
25346;DHT22;13300;51.032;3.710;2023-08-24T02:50:54;19.00;99.90
25346;DHT22;13300;51.032;3.710;2023-08-24T02:53:19;19.10;99.90
25346;DHT22;13300;51.032;3.710;2023-08-24T02:55:45;19.10;99.90
25346;DHT22;13300;51.032;3.710;2023-08-24T02:58:10;19.10;99.90
25346;DHT22;13300;51.032;3.710;2023-08-24T03:00:39;19.20;99.90
25346;DHT22;13300;51.032;3.710;2023-08-24T03:03:04;19.20;99.90
25346;DHT22;13300;51.032;3.710;2023-08-24T03:05:31;19.20;99.90
25346;DHT22;13300;51.032;3.710;2023-08-24T03:07:58;19.20;99.90
25346;DHT22;13300;51.032;3.710;2023-08-24T03:10:23;19.30;99.90
25346;DHT22;13300;51.032;3.710;2023-08-24T03:12:49;19.30;99.90
25346;DHT22;13300;51.032;3.710;2023-08-24T03:15:14;19.30;99.90
25346;DHT22;13300;51.032;3.710;2023-08-24T03:17:40;19.30;99.90
25346;DHT22;13300;51.032;3.710;2023-08-24T03:20:06;19.40;99.90
25346;DHT22;13300;51.032;3.710;2023-08-24T03:22:31;19.40;99.90
25346;DHT22;13300;51.032;3.710;2023-08-24T03:24:57;19.50;99.90
25346;DHT22;13300;51.032;3.710;2023-08-24T03:27:23;19.50;99.90
25346;DHT22;13300;51.032;3.710;2023-08-24T03:29:48;19.50;99.90
25346;DHT22;13300;51.032;3.710;2023-08-24T03:32:14;19.60;99.90
25346;DHT22;13300;51.032;3.710;2023-08-24T03:34:39;19.60;99.90
25346;DHT22;13300;51.032;3.710;2023-08-24T03:37:05;19.70;99.90
25346;DHT22;13300;51.032;3.710;2023-08-24T03:39:31;19.70;99.90
25346;DHT22;13300;51.032;3.710;2023-08-24T03:41:56;19.70;99.90
25346;DHT22;13300;51.032;3.710;2023-08-24T03:44:22;19.80;99.90
25346;DHT22;13300;51.032;3.710;2023-08-24T03:46:47;19.80;99.90
25346;DHT22;13300;51.032;3.710;2023-08-24T03:49:13;19.80;99.90
25346;DHT22;13300;51.032;3.710;2023-08-24T03:51:38;19.90;99.90
25346;DHT22;13300;51.032;3.710;2023-08-24T03:54:04;19.90;99.90
25346;DHT22;13300;51.032;3.710;2023-08-24T03:56:30;19.90;99.90
25346;DHT22;13300;51.032;3.710;2023-08-24T03:58:56;19.90;99.90
25346;DHT22;13300;51.032;3.710;2023-08-24T04:01:21;19.90;99.90
25346;DHT22;13300;51.032;3.710;2023-08-24T04:03:47;20.00;99.90
25346;DHT22;13300;51.032;3.710;2023-08-24T04:06:13;20.00;99.90
25346;DHT22;13300;51.032;3.710;2023-08-24T04:08:38;20.00;99.90
25346;DHT22;13300;51.032;3.710;2023-08-24T04:11:04;19.90;99.90
25346;DHT22;13300;51.032;3.710;2023-08-24T04:13:30;19.70;99.90
25346;DHT22;13300;51.032;3.710;2023-08-24T04:15:55;19.70;99.90
25346;DHT22;13300;51.032;3.710;2023-08-24T04:18:21;19.70;99.90
25346;DHT22;13300;51.032;3.710;2023-08-24T04:20:46;19.70;99.90
25346;DHT22;13300;51.032;3.710;2023-08-24T04:23:12;19.70;99.90
25346;DHT22;13300;51.032;3.710;2023-08-24T04:25:41;19.90;99.90
25346;DHT22;13300;51.032;3.710;2023-08-24T04:28:06;19.90;99.90
25346;DHT22;13300;51.032;3.710;2023-08-24T04:30:32;19.80;99.90
25346;DHT22;13300;51.032;3.710;2023-08-24T04:32:58;19.80;99.90
25346;DHT22;13300;51.032;3.710;2023-08-24T04:35:25;19.80;99.90
25346;DHT22;13300;51.032;3.710;2023-08-24T04:37:51;19.80;99.90
25346;DHT22;13300;51.032;3.710;2023-08-24T04:40:16;19.90;99.90
25346;DHT22;13300;51.032;3.710;2023-08-24T04:42:42;20.00;99.90
25346;DHT22;13300;51.032;3.710;2023-08-24T04:45:07;20.00;99.90
25346;DHT22;13300;51.032;3.710;2023-08-24T04:47:33;19.90;99.90
25346;DHT22;13300;51.032;3.710;2023-08-24T04:49:58;19.90;99.90
25346;DHT22;13300;51.032;3.710;2023-08-24T04:52:24;19.80;99.90
25346;DHT22;13300;51.032;3.710;2023-08-24T04:54:49;19.70;99.90
25346;DHT22;13300;51.032;3.710;2023-08-24T04:57:16;19.80;99.90
25346;DHT22;13300;51.032;3.710;2023-08-24T04:59:41;19.80;99.90
25346;DHT22;13300;51.032;3.710;2023-08-24T05:02:07;19.80;99.90
25346;DHT22;13300;51.032;3.710;2023-08-24T05:04:33;19.80;99.90
25346;DHT22;13300;51.032;3.710;2023-08-24T05:06:58;19.80;99.90
25346;DHT22;13300;51.032;3.710;2023-08-24T05:09:24;19.80;99.90
25346;DHT22;13300;51.032;3.710;2023-08-24T05:11:49;19.90;99.90
25346;DHT22;13300;51.032;3.710;2023-08-24T05:14:15;20.00;99.90
25346;DHT22;13300;51.032;3.710;2023-08-24T05:16:40;20.10;99.90
25346;DHT22;13300;51.032;3.710;2023-08-24T05:19:06;20.10;99.90
25346;DHT22;13300;51.032;3.710;2023-08-24T05:21:32;20.10;99.90
25346;DHT22;13300;51.032;3.710;2023-08-24T05:23:57;20.10;99.90
25346;DHT22;13300;51.032;3.710;2023-08-24T05:26:23;20.10;99.90
25346;DHT22;13300;51.032;3.710;2023-08-24T05:28:49;20.20;99.90
25346;DHT22;13300;51.032;3.710;2023-08-24T05:31:15;20.20;99.90
25346;DHT22;13300;51.032;3.710;2023-08-24T05:33:41;20.20;99.90
25346;DHT22;13300;51.032;3.710;2023-08-24T05:36:07;20.30;99.90
25346;DHT22;13300;51.032;3.710;2023-08-24T05:38:32;20.30;99.90
25346;DHT22;13300;51.032;3.710;2023-08-24T05:40:58;20.30;99.90
25346;DHT22;13300;51.032;3.710;2023-08-24T05:43:24;20.10;99.90
25346;DHT22;13300;51.032;3.710;2023-08-24T05:45:49;20.10;99.90
25346;DHT22;13300;51.032;3.710;2023-08-24T05:48:15;20.20;99.90
25346;DHT22;13300;51.032;3.710;2023-08-24T05:50:44;20.30;99.90
25346;DHT22;13300;51.032;3.710;2023-08-24T05:53:10;20.50;99.90
25346;DHT22;13300;51.032;3.710;2023-08-24T05:55:36;20.60;99.90
25346;DHT22;13300;51.032;3.710;2023-08-24T05:58:02;20.70;99.90
25346;DHT22;13300;51.032;3.710;2023-08-24T06:00:27;20.90;99.90
25346;DHT22;13300;51.032;3.710;2023-08-24T06:02:54;20.90;99.90
25346;DHT22;13300;51.032;3.710;2023-08-24T06:05:19;21.00;99.90
25346;DHT22;13300;51.032;3.710;2023-08-24T06:07:45;21.10;99.90
25346;DHT22;13300;51.032;3.710;2023-08-24T06:10:13;21.20;99.90
25346;DHT22;13300;51.032;3.710;2023-08-24T06:12:39;21.40;99.90
25346;DHT22;13300;51.032;3.710;2023-08-24T06:15:05;21.50;99.90
25346;DHT22;13300;51.032;3.710;2023-08-24T06:17:33;21.70;99.90
25346;DHT22;13300;51.032;3.710;2023-08-24T06:20:01;21.90;99.90
25346;DHT22;13300;51.032;3.710;2023-08-24T06:22:27;22.10;99.90
25346;DHT22;13300;51.032;3.710;2023-08-24T06:24:52;22.20;99.90
25346;DHT22;13300;51.032;3.710;2023-08-24T06:27:19;22.40;99.90
25346;DHT22;13300;51.032;3.710;2023-08-24T06:29:45;22.70;99.90
25346;DHT22;13300;51.032;3.710;2023-08-24T06:32:11;23.00;99.90
25346;DHT22;13300;51.032;3.710;2023-08-24T06:34:36;23.20;99.90
25346;DHT22;13300;51.032;3.710;2023-08-24T06:37:02;23.40;99.90
25346;DHT22;13300;51.032;3.710;2023-08-24T06:39:30;23.50;99.90
25346;DHT22;13300;51.032;3.710;2023-08-24T06:41:56;23.70;99.90
25346;DHT22;13300;51.032;3.710;2023-08-24T06:44:21;23.80;99.90
25346;DHT22;13300;51.032;3.710;2023-08-24T06:46:47;24.00;99.90
25346;DHT22;13300;51.032;3.710;2023-08-24T06:49:12;24.10;99.90
25346;DHT22;13300;51.032;3.710;2023-08-24T06:51:38;24.20;99.90
25346;DHT22;13300;51.032;3.710;2023-08-24T06:54:04;24.40;99.90
25346;DHT22;13300;51.032;3.710;2023-08-24T06:56:29;24.40;99.90
25346;DHT22;13300;51.032;3.710;2023-08-24T06:58:55;24.40;99.90
25346;DHT22;13300;51.032;3.710;2023-08-24T07:01:20;24.30;99.90
25346;DHT22;13300;51.032;3.710;2023-08-24T07:03:46;24.30;99.90
25346;DHT22;13300;51.032;3.710;2023-08-24T07:06:11;24.40;99.90
25346;DHT22;13300;51.032;3.710;2023-08-24T07:08:40;23.90;99.90
25346;DHT22;13300;51.032;3.710;2023-08-24T07:11:05;24.20;99.90
25346;DHT22;13300;51.032;3.710;2023-08-24T07:13:34;24.20;99.90
25346;DHT22;13300;51.032;3.710;2023-08-24T07:16:00;24.30;99.90
25346;DHT22;13300;51.032;3.710;2023-08-24T07:18:26;24.20;99.90
25346;DHT22;13300;51.032;3.710;2023-08-24T07:20:51;24.10;99.90
25346;DHT22;13300;51.032;3.710;2023-08-24T07:23:17;24.00;99.90
25346;DHT22;13300;51.032;3.710;2023-08-24T07:25:42;23.90;99.90
25346;DHT22;13300;51.032;3.710;2023-08-24T07:28:08;23.80;99.90
25346;DHT22;13300;51.032;3.710;2023-08-24T07:30:35;23.80;99.90
25346;DHT22;13300;51.032;3.710;2023-08-24T07:33:01;23.70;99.90
25346;DHT22;13300;51.032;3.710;2023-08-24T07:35:27;23.60;99.90
25346;DHT22;13300;51.032;3.710;2023-08-24T07:37:53;23.60;99.90
25346;DHT22;13300;51.032;3.710;2023-08-24T07:40:19;23.60;99.90
25346;DHT22;13300;51.032;3.710;2023-08-24T07:45:10;23.50;99.90
25346;DHT22;13300;51.032;3.710;2023-08-24T07:47:35;23.50;99.90
25346;DHT22;13300;51.032;3.710;2023-08-24T07:50:01;23.50;99.90
25346;DHT22;13300;51.032;3.710;2023-08-24T07:52:26;23.40;99.90
25346;DHT22;13300;51.032;3.710;2023-08-24T07:54:54;23.50;99.90
25346;DHT22;13300;51.032;3.710;2023-08-24T07:57:20;23.50;99.90
25346;DHT22;13300;51.032;3.710;2023-08-24T07:59:46;23.50;99.90
25346;DHT22;13300;51.032;3.710;2023-08-24T08:02:12;23.60;99.90
25346;DHT22;13300;51.032;3.710;2023-08-24T08:04:37;23.60;99.90
25346;DHT22;13300;51.032;3.710;2023-08-24T08:07:03;23.50;99.90
25346;DHT22;13300;51.032;3.710;2023-08-24T08:09:28;23.40;99.90
25346;DHT22;13300;51.032;3.710;2023-08-24T08:11:54;23.40;99.90
25346;DHT22;13300;51.032;3.710;2023-08-24T08:14:19;23.40;99.90
25346;DHT22;13300;51.032;3.710;2023-08-24T08:16:45;23.40;99.90
25346;DHT22;13300;51.032;3.710;2023-08-24T08:19:11;23.30;99.90
25346;DHT22;13300;51.032;3.710;2023-08-24T08:21:36;23.20;99.90
25346;DHT22;13300;51.032;3.710;2023-08-24T08:24:02;23.20;99.90
25346;DHT22;13300;51.032;3.710;2023-08-24T08:26:28;23.20;99.90
25346;DHT22;13300;51.032;3.710;2023-08-24T08:28:54;23.00;99.90
25346;DHT22;13300;51.032;3.710;2023-08-24T08:31:20;22.80;99.90
25346;DHT22;13300;51.032;3.710;2023-08-24T08:33:45;22.90;99.90
25346;DHT22;13300;51.032;3.710;2023-08-24T08:36:11;22.90;99.90
25346;DHT22;13300;51.032;3.710;2023-08-24T08:38:36;22.90;99.90
25346;DHT22;13300;51.032;3.710;2023-08-24T08:41:02;23.10;99.90
25346;DHT22;13300;51.032;3.710;2023-08-24T08:43:28;23.00;99.90
25346;DHT22;13300;51.032;3.710;2023-08-24T08:45:55;23.00;99.90
25346;DHT22;13300;51.032;3.710;2023-08-24T08:48:21;22.90;99.90
25346;DHT22;13300;51.032;3.710;2023-08-24T08:50:50;22.90;99.90
25346;DHT22;13300;51.032;3.710;2023-08-24T08:53:16;22.80;99.90
25346;DHT22;13300;51.032;3.710;2023-08-24T08:55:42;22.80;99.90
25346;DHT22;13300;51.032;3.710;2023-08-24T08:58:08;22.80;99.90
25346;DHT22;13300;51.032;3.710;2023-08-24T09:00:35;22.70;99.90
25346;DHT22;13300;51.032;3.710;2023-08-24T09:03:01;22.70;99.90
25346;DHT22;13300;51.032;3.710;2023-08-24T09:05:26;22.50;99.90
25346;DHT22;13300;51.032;3.710;2023-08-24T09:07:53;22.60;99.90
25346;DHT22;13300;51.032;3.710;2023-08-24T09:10:18;22.50;99.90
25346;DHT22;13300;51.032;3.710;2023-08-24T09:12:44;22.10;99.90
25346;DHT22;13300;51.032;3.710;2023-08-24T09:15:09;21.90;99.90
25346;DHT22;13300;51.032;3.710;2023-08-24T09:17:35;21.50;99.90
25346;DHT22;13300;51.032;3.710;2023-08-24T09:20:06;21.30;99.90
25346;DHT22;13300;51.032;3.710;2023-08-24T09:22:40;21.10;99.90
25346;DHT22;13300;51.032;3.710;2023-08-24T09:25:09;20.90;99.90
25346;DHT22;13300;51.032;3.710;2023-08-24T09:27:34;20.70;99.90
25346;DHT22;13300;51.032;3.710;2023-08-24T09:30:00;20.60;99.90
25346;DHT22;13300;51.032;3.710;2023-08-24T09:32:29;20.50;99.90
25346;DHT22;13300;51.032;3.710;2023-08-24T09:34:55;20.50;99.90
25346;DHT22;13300;51.032;3.710;2023-08-24T09:37:21;20.40;99.90
25346;DHT22;13300;51.032;3.710;2023-08-24T09:39:46;20.40;99.90
25346;DHT22;13300;51.032;3.710;2023-08-24T09:42:12;20.40;99.90
25346;DHT22;13300;51.032;3.710;2023-08-24T09:44:40;20.40;99.90
25346;DHT22;13300;51.032;3.710;2023-08-24T09:47:11;20.50;99.90
25346;DHT22;13300;51.032;3.710;2023-08-24T09:49:36;20.40;99.90
25346;DHT22;13300;51.032;3.710;2023-08-24T09:52:02;20.40;99.90
25346;DHT22;13300;51.032;3.710;2023-08-24T09:54:28;20.30;99.90
25346;DHT22;13300;51.032;3.710;2023-08-24T09:56:55;20.20;99.90
25346;DHT22;13300;51.032;3.710;2023-08-24T09:59:21;20.20;99.90
25346;DHT22;13300;51.032;3.710;2023-08-24T10:01:50;20.20;99.90
25346;DHT22;13300;51.032;3.710;2023-08-24T10:04:23;20.20;99.90
25346;DHT22;13300;51.032;3.710;2023-08-24T10:06:49;20.20;99.90
25346;DHT22;13300;51.032;3.710;2023-08-24T10:09:19;20.20;99.90
25346;DHT22;13300;51.032;3.710;2023-08-24T10:11:49;20.20;99.90
25346;DHT22;13300;51.032;3.710;2023-08-24T10:16:59;20.60;99.90
25346;DHT22;13300;51.032;3.710;2023-08-24T10:19:25;20.80;99.90
25346;DHT22;13300;51.032;3.710;2023-08-24T10:21:53;20.80;99.90
25346;DHT22;13300;51.032;3.710;2023-08-24T10:24:18;20.90;99.90
25346;DHT22;13300;51.032;3.710;2023-08-24T10:26:46;21.20;99.90
25346;DHT22;13300;51.032;3.710;2023-08-24T10:29:12;21.30;99.90
25346;DHT22;13300;51.032;3.710;2023-08-24T10:31:39;21.60;99.90
25346;DHT22;13300;51.032;3.710;2023-08-24T10:34:05;21.80;99.90
25346;DHT22;13300;51.032;3.710;2023-08-24T10:36:31;22.00;99.90
25346;DHT22;13300;51.032;3.710;2023-08-24T10:38:57;22.10;99.90
25346;DHT22;13300;51.032;3.710;2023-08-24T10:41:29;22.10;99.90
25346;DHT22;13300;51.032;3.710;2023-08-24T10:44:05;22.30;99.90
25346;DHT22;13300;51.032;3.710;2023-08-24T10:46:35;22.50;99.90
25346;DHT22;13300;51.032;3.710;2023-08-24T10:49:03;22.60;99.90
25346;DHT22;13300;51.032;3.710;2023-08-24T10:51:29;22.90;99.90
25346;DHT22;13300;51.032;3.710;2023-08-24T10:56:21;23.70;99.90
25346;DHT22;13300;51.032;3.710;2023-08-24T10:59:09;25.00;99.90
25346;DHT22;13300;51.032;3.710;2023-08-24T11:01:35;25.70;99.90
25346;DHT22;13300;51.032;3.710;2023-08-24T11:04:03;26.60;99.90
25346;DHT22;13300;51.032;3.710;2023-08-24T11:06:30;27.20;99.90
25346;DHT22;13300;51.032;3.710;2023-08-24T11:09:06;27.50;99.90
25346;DHT22;13300;51.032;3.710;2023-08-24T11:12:00;26.70;99.90
25346;DHT22;13300;51.032;3.710;2023-08-24T11:14:26;26.80;99.90
25346;DHT22;13300;51.032;3.710;2023-08-24T11:16:52;26.80;99.90
25346;DHT22;13300;51.032;3.710;2023-08-24T11:19:19;26.70;99.90
25346;DHT22;13300;51.032;3.710;2023-08-24T11:21:45;26.30;99.90
25346;DHT22;13300;51.032;3.710;2023-08-24T11:24:12;26.00;99.90
25346;DHT22;13300;51.032;3.710;2023-08-24T11:26:39;25.80;99.90
25346;DHT22;13300;51.032;3.710;2023-08-24T11:29:05;25.60;99.90
25346;DHT22;13300;51.032;3.710;2023-08-24T11:31:30;25.30;99.90
25346;DHT22;13300;51.032;3.710;2023-08-24T11:33:56;25.40;99.90
25346;DHT22;13300;51.032;3.710;2023-08-24T11:36:21;25.00;99.90
25346;DHT22;13300;51.032;3.710;2023-08-24T11:38:53;24.40;99.90
25346;DHT22;13300;51.032;3.710;2023-08-24T11:41:21;24.00;99.90
25346;DHT22;13300;51.032;3.710;2023-08-24T11:43:47;24.00;99.90
25346;DHT22;13300;51.032;3.710;2023-08-24T11:46:15;23.80;99.90
25346;DHT22;13300;51.032;3.710;2023-08-24T11:48:41;23.90;99.90
25346;DHT22;13300;51.032;3.710;2023-08-24T11:51:09;23.70;99.90
25346;DHT22;13300;51.032;3.710;2023-08-24T11:53:37;23.70;99.90
25346;DHT22;13300;51.032;3.710;2023-08-24T11:56:03;23.80;99.90
25346;DHT22;13300;51.032;3.710;2023-08-24T11:58:31;23.70;99.90
25346;DHT22;13300;51.032;3.710;2023-08-24T12:00:56;23.80;99.90
25346;DHT22;13300;51.032;3.710;2023-08-24T12:03:22;23.90;99.90
25346;DHT22;13300;51.032;3.710;2023-08-24T12:05:47;23.80;99.90
25346;DHT22;13300;51.032;3.710;2023-08-24T12:08:13;23.90;99.90
25346;DHT22;13300;51.032;3.710;2023-08-24T12:10:42;23.80;99.90
25346;DHT22;13300;51.032;3.710;2023-08-24T12:13:08;23.80;99.90
25346;DHT22;13300;51.032;3.710;2023-08-24T12:15:35;23.50;99.90
25346;DHT22;13300;51.032;3.710;2023-08-24T12:18:08;23.60;99.90
25346;DHT22;13300;51.032;3.710;2023-08-24T12:20:34;23.70;99.90
25346;DHT22;13300;51.032;3.710;2023-08-24T12:22:59;23.60;99.90
25346;DHT22;13300;51.032;3.710;2023-08-24T12:25:25;23.90;99.90
25346;DHT22;13300;51.032;3.710;2023-08-24T12:27:51;23.90;99.90
25346;DHT22;13300;51.032;3.710;2023-08-24T12:30:17;24.10;99.90
25346;DHT22;13300;51.032;3.710;2023-08-24T12:32:43;24.20;99.90
25346;DHT22;13300;51.032;3.710;2023-08-24T12:35:13;23.90;99.90
25346;DHT22;13300;51.032;3.710;2023-08-24T12:37:39;24.10;99.90
25346;DHT22;13300;51.032;3.710;2023-08-24T12:40:05;24.10;99.90
25346;DHT22;13300;51.032;3.710;2023-08-24T12:42:31;24.40;99.90
25346;DHT22;13300;51.032;3.710;2023-08-24T12:44:57;24.20;99.90
25346;DHT22;13300;51.032;3.710;2023-08-24T12:47:22;23.90;99.90
25346;DHT22;13300;51.032;3.710;2023-08-24T12:49:48;23.80;99.90
25346;DHT22;13300;51.032;3.710;2023-08-24T12:52:13;23.90;99.90
25346;DHT22;13300;51.032;3.710;2023-08-24T12:54:39;23.60;99.90
25346;DHT22;13300;51.032;3.710;2023-08-24T12:57:04;23.60;99.90
25346;DHT22;13300;51.032;3.710;2023-08-24T12:59:30;23.60;99.90
25346;DHT22;13300;51.032;3.710;2023-08-24T13:01:55;23.60;99.90
25346;DHT22;13300;51.032;3.710;2023-08-24T13:04:21;23.50;99.90
25346;DHT22;13300;51.032;3.710;2023-08-24T13:06:47;23.50;99.90
25346;DHT22;13300;51.032;3.710;2023-08-24T13:09:12;23.60;99.90
25346;DHT22;13300;51.032;3.710;2023-08-24T13:11:39;23.70;99.90
25346;DHT22;13300;51.032;3.710;2023-08-24T13:14:04;23.80;99.90
25346;DHT22;13300;51.032;3.710;2023-08-24T13:16:30;23.80;99.90
25346;DHT22;13300;51.032;3.710;2023-08-24T13:18:56;23.80;99.90
25346;DHT22;13300;51.032;3.710;2023-08-24T13:21:21;24.00;99.90
25346;DHT22;13300;51.032;3.710;2023-08-24T13:23:47;24.10;99.90
25346;DHT22;13300;51.032;3.710;2023-08-24T13:26:16;24.30;99.90
25346;DHT22;13300;51.032;3.710;2023-08-24T13:28:44;24.30;99.90
25346;DHT22;13300;51.032;3.710;2023-08-24T13:31:09;24.40;99.90
25346;DHT22;13300;51.032;3.710;2023-08-24T13:33:35;24.90;99.90
25346;DHT22;13300;51.032;3.710;2023-08-24T13:36:01;25.00;99.90
25346;DHT22;13300;51.032;3.710;2023-08-24T13:38:27;25.40;99.90
25346;DHT22;13300;51.032;3.710;2023-08-24T13:40:52;25.80;99.90
25346;DHT22;13300;51.032;3.710;2023-08-24T13:43:18;26.40;99.90
25346;DHT22;13300;51.032;3.710;2023-08-24T13:45:45;26.40;99.90
25346;DHT22;13300;51.032;3.710;2023-08-24T13:48:10;26.50;99.90
25346;DHT22;13300;51.032;3.710;2023-08-24T13:50:36;26.90;99.90
25346;DHT22;13300;51.032;3.710;2023-08-24T13:53:01;27.00;99.90
25346;DHT22;13300;51.032;3.710;2023-08-24T13:55:27;26.20;99.90
25346;DHT22;13300;51.032;3.710;2023-08-24T13:57:52;26.30;99.90
25346;DHT22;13300;51.032;3.710;2023-08-24T14:00:18;26.30;99.90
25346;DHT22;13300;51.032;3.710;2023-08-24T14:02:44;26.40;99.90
25346;DHT22;13300;51.032;3.710;2023-08-24T14:05:10;26.40;99.90
25346;DHT22;13300;51.032;3.710;2023-08-24T14:07:36;26.30;99.90
25346;DHT22;13300;51.032;3.710;2023-08-24T14:10:02;26.10;99.90
25346;DHT22;13300;51.032;3.710;2023-08-24T14:12:28;25.50;99.90
25346;DHT22;13300;51.032;3.710;2023-08-24T14:14:54;25.10;99.90
25346;DHT22;13300;51.032;3.710;2023-08-24T14:17:20;25.00;99.90
25346;DHT22;13300;51.032;3.710;2023-08-24T14:19:45;24.80;99.90
25346;DHT22;13300;51.032;3.710;2023-08-24T14:22:11;24.60;99.90
25346;DHT22;13300;51.032;3.710;2023-08-24T14:24:36;24.30;99.90
25346;DHT22;13300;51.032;3.710;2023-08-24T14:27:02;24.10;99.90
25346;DHT22;13300;51.032;3.710;2023-08-24T14:29:28;24.10;99.90
25346;DHT22;13300;51.032;3.710;2023-08-24T14:31:53;24.00;99.90
25346;DHT22;13300;51.032;3.710;2023-08-24T14:34:19;24.00;99.90
25346;DHT22;13300;51.032;3.710;2023-08-24T14:36:44;24.10;99.90
25346;DHT22;13300;51.032;3.710;2023-08-24T14:39:10;24.30;99.90
25346;DHT22;13300;51.032;3.710;2023-08-24T14:41:35;24.50;99.90
25346;DHT22;13300;51.032;3.710;2023-08-24T14:44:01;24.80;99.90
25346;DHT22;13300;51.032;3.710;2023-08-24T14:46:26;24.40;99.90
25346;DHT22;13300;51.032;3.710;2023-08-24T14:48:52;24.60;99.90
25346;DHT22;13300;51.032;3.710;2023-08-24T14:51:17;25.00;99.90
25346;DHT22;13300;51.032;3.710;2023-08-24T14:53:43;25.50;99.90
25346;DHT22;13300;51.032;3.710;2023-08-24T14:56:08;25.90;99.90
25346;DHT22;13300;51.032;3.710;2023-08-24T14:58:35;26.20;99.90
25346;DHT22;13300;51.032;3.710;2023-08-24T15:01:00;26.30;99.90
25346;DHT22;13300;51.032;3.710;2023-08-24T15:03:26;26.30;99.90
25346;DHT22;13300;51.032;3.710;2023-08-24T15:06:11;25.80;99.90
25346;DHT22;13300;51.032;3.710;2023-08-24T15:08:36;26.10;99.90
25346;DHT22;13300;51.032;3.710;2023-08-24T15:11:02;26.30;99.90
25346;DHT22;13300;51.032;3.710;2023-08-24T15:13:28;26.10;99.90
25346;DHT22;13300;51.032;3.710;2023-08-24T15:15:54;25.80;99.90
25346;DHT22;13300;51.032;3.710;2023-08-24T15:18:22;25.40;99.90
25346;DHT22;13300;51.032;3.710;2023-08-24T15:20:48;25.50;99.90
25346;DHT22;13300;51.032;3.710;2023-08-24T15:23:21;25.30;99.90
25346;DHT22;13300;51.032;3.710;2023-08-24T15:25:47;25.20;99.90
25346;DHT22;13300;51.032;3.710;2023-08-24T15:28:12;25.50;99.90
25346;DHT22;13300;51.032;3.710;2023-08-24T15:30:38;25.30;99.90
25346;DHT22;13300;51.032;3.710;2023-08-24T15:33:03;25.80;99.90
25346;DHT22;13300;51.032;3.710;2023-08-24T15:35:29;26.60;99.90
25346;DHT22;13300;51.032;3.710;2023-08-24T15:38:03;27.30;99.90